Friday, October 31, 2014, 7:53 AM EDT

KRDG, Reading Regional Airport

Location: Reading, PA, United States Lat: 40.367
Local Time: 7:53 AM EDT (11:53 GMT) Lon: -75.967
Time Zone: US/Eastern Elev: 344 ft

Show me the last for .
Show Decoded

2014-10-31 06:54 METAR KRDG 311054Z 00000KT 10SM CLR 02/00 A3002 RMK AO2 SLP173 T00170000 =
2014-10-31 05:54 METAR KRDG 310954Z 00000KT 10SM CLR 02/00 A3002 =
2014-10-31 04:54 METAR KRDG 310854Z 01004KT 10SM CLR 02/00 A3001 RMK AO2 SLP169 T00170000 56005 =
2014-10-31 03:54 METAR KRDG 310754Z 01003KT 10SM OVC050 03/01 A3002 =
2014-10-31 02:54 METAR KRDG 310654Z 00000KT 10SM SCT050 03/01 A3002 RMK AO2 SLP170 T00280006 =
2014-10-31 01:54 METAR KRDG 310554Z 00000KT 10SM BKN050 03/01 A3003 RMK AO2 SLP174 T00280011
                 10089 20028 56003 =
2014-10-31 00:54 METAR KRDG 310454Z 00000KT 10SM CLR 04/01 A3003 RMK AO2 SLP175 T00390011
                 401500039 =
2014-10-30 23:54 METAR KRDG 310354Z 00000KT 10SM BKN055 04/01 A3003 RMK AO2 SLP176 T00390006 =
2014-10-30 22:54 METAR KRDG 310254Z VRB03KT 10SM CLR 05/01 A3004 RMK AO2 SLP178 T00500011 50004 =
2014-10-30 21:54 METAR KRDG 310154Z 00000KT 10SM FEW055 07/01 A3004 RMK AO2 SLP179 T00670011 =
2014-10-30 20:54 METAR KRDG 310054Z 00000KT 10SM FEW055 07/01 A3003 RMK AO2 SLP174 T00670011 =
2014-10-30 19:54 METAR KRDG 302354Z 35004KT 10SM CLR 09/01 A3002 RMK AO2 SLP173 T00940011 10144
                 20094 51007 =
2014-10-30 18:54 METAR KRDG 302254Z 34003KT 10SM FEW055 10/01 A3002 RMK AO2 SLP173 T01000006 =
2014-10-30 17:54 METAR KRDG 302154Z 34009KT 10SM BKN050 12/01 A3001 RMK AO2 SLP169 T01170011 =
2014-10-30 16:54 METAR KRDG 302054Z 33010KT 10SM BKN055 12/02 A3000 RMK AO2 SLP166 T01220017
                 55000 =
2014-10-30 15:54 METAR KRDG 301954Z 35007KT 10SM BKN060 13/02 A3000 RMK AO2 SLP163 T01280022 =
2014-10-30 14:54 METAR KRDG 301854Z 32009KT 10SM OVC060 14/02 A2999 RMK AO2 SLP162 T01390017 =
2014-10-30 13:54 METAR KRDG 301754Z 31007KT 10SM OVC055 13/02 A3000 RMK AO2 SLP166 60000
                 T01330022 10150 20056 58011 =
2014-10-30 12:54 METAR KRDG 301654Z VRB04KT 10SM FEW043 13/03 A3002 RMK AO2 SLP170 T01330028 =
2014-10-30 11:54 METAR KRDG 301554Z 01006KT 10SM BKN038 12/03 A3004 RMK AO2 SLP178 T01220028 =
2014-10-30 10:54 METAR KRDG 301454Z 35009KT 10SM BKN030 BKN036 11/05 A3004 RMK AO2 RAB43E54
                 SLP177 P0000 60000 T01110050 50005 =
2014-10-30 09:54 METAR KRDG 301354Z 00000KT 10SM SCT043 SCT055 10/06 A3004 RMK AO2 SLP178
                 T01000061 =
2014-10-30 08:54 METAR KRDG 301254Z 00000KT 10SM FEW060 07/05 A3003 RMK AO2 SLP177 T00720050 =
2014-10-30 08:01 METAR KRDG 301201Z 00000KT 10SM FEW002 FEW046 06/04 A3002 =
2014-10-30 07:54 METAR KRDG 301154Z 24003KT 10SM R36/2400VP6000FT CLR 05/04 A3002 RMK AO2 SLP172
                 70004 T00500044 10089 20050 51007 =

Support USWX by starting your Amazon purchase here.